createdAt,value
2018-08-07T00:00:48.879Z,93912.45
2018-08-07T00:16:22.269Z,93902.75
2018-08-07T00:31:56.913Z,93909.52
2018-08-07T00:47:32.716Z,93904.08
2018-08-07T01:03:06.004Z,93896.52
2018-08-07T01:18:40.513Z,93889.89
2018-08-07T01:34:15.013Z,93881.14
2018-08-07T01:49:48.924Z,93888.49
2018-08-07T02:05:24.942Z,93886.92
2018-08-07T02:20:59.871Z,93892.44
2018-08-07T02:36:35.503Z,93893.98
2018-08-07T02:52:09.451Z,93911.77
2018-08-07T03:07:43.940Z,93914.51
2018-08-07T03:23:17.493Z,93919.37
2018-08-07T03:38:52.624Z,93923.38
2018-08-07T03:54:27.432Z,93905.16
2018-08-07T04:10:02.266Z,93906.74
2018-08-07T04:25:36.208Z,93909.80
2018-08-07T04:41:11.161Z,93923.61
2018-08-07T04:56:45.063Z,93917.17
2018-08-07T05:12:19.090Z,93923.19
2018-08-07T05:27:52.846Z,93932.59
2018-08-07T05:43:26.595Z,93940.61
2018-08-07T05:59:00.585Z,93943.09
2018-08-07T06:14:35.326Z,93948.00
2018-08-07T06:30:10.159Z,93957.59
2018-08-07T06:45:44.173Z,93953.31
2018-08-07T07:01:18.930Z,93948.60
2018-08-07T07:16:53.830Z,93944.42
2018-08-07T07:32:28.812Z,93950.45
2018-08-07T07:48:03.667Z,93950.66
2018-08-07T08:03:36.943Z,93945.83
2018-08-07T08:19:10.683Z,93944.99
2018-08-07T08:34:44.182Z,93937.30
2018-08-07T08:50:18.873Z,93930.44
2018-08-07T09:05:54.010Z,93943.55
2018-08-07T09:21:28.717Z,93934.59
2018-08-07T09:37:03.008Z,93924.94
2018-08-07T09:52:38.860Z,93918.53
2018-08-07T10:08:13.604Z,93913.68
2018-08-07T10:23:46.648Z,93896.70
2018-08-07T10:39:21.785Z,93881.43
2018-08-07T10:54:56.197Z,93855.84
2018-08-07T11:10:39.251Z,93837.98
2018-08-07T11:25:43.523Z,93847.88
2018-08-07T11:40:47.585Z,93833.56
2018-08-07T11:55:51.811Z,93818.50
2018-08-07T12:10:55.788Z,93799.33
2018-08-07T12:25:59.927Z,93787.58
2018-08-07T12:41:04.113Z,93806.73
2018-08-07T12:56:08.261Z,93815.05
2018-08-07T13:11:12.879Z,93798.52
2018-08-07T13:26:16.945Z,93810.09
2018-08-07T13:41:21.168Z,93816.22
2018-08-07T13:56:25.381Z,93833.10
2018-08-07T14:11:29.532Z,93835.05
2018-08-07T14:26:33.621Z,93844.23
2018-08-07T14:41:37.750Z,93822.58
2018-08-07T14:56:41.898Z,93828.09
2018-08-07T15:11:45.820Z,93823.08
2018-08-07T15:26:49.998Z,93840.83
2018-08-07T15:41:54.103Z,93836.71
2018-08-07T15:56:58.443Z,93837.92
2018-08-07T16:12:02.691Z,93842.74
2018-08-07T16:27:06.915Z,93850.72
2018-08-07T16:42:11.089Z,93849.45
2018-08-07T16:57:15.527Z,93861.80
2018-08-07T17:12:19.721Z,93879.28
2018-08-07T17:27:23.641Z,93882.98
2018-08-07T17:42:27.826Z,93890.05
2018-08-07T17:57:32.011Z,93907.33
2018-08-07T18:12:36.284Z,93908.08
2018-08-07T18:27:40.883Z,93924.34
2018-08-07T18:42:45.116Z,93938.27
2018-08-07T18:57:50.279Z,93949.63
2018-08-07T19:12:54.550Z,93954.89
2018-08-07T19:27:58.586Z,93947.55
2018-08-07T19:43:02.687Z,93920.18
2018-08-07T19:58:06.890Z,93930.95
2018-08-07T20:13:11.015Z,93935.13
2018-08-07T20:28:15.059Z,93944.55
2018-08-07T20:43:19.225Z,93950.34
2018-08-07T20:58:23.720Z,93953.77
2018-08-07T21:13:27.929Z,93971.92
2018-08-07T21:28:32.135Z,93969.81
2018-08-07T21:43:36.320Z,93974.54
2018-08-07T21:58:40.462Z,93973.06
2018-08-07T22:13:44.537Z,93967.03
2018-08-07T22:28:48.650Z,93962.23
2018-08-07T22:43:53.318Z,93957.48
2018-08-07T22:58:57.419Z,93957.69
2018-08-07T23:14:01.603Z,93965.86
2018-08-07T23:29:05.616Z,93948.79
2018-08-07T23:44:09.741Z,93959.84
2018-08-07T23:59:13.886Z,93962.73
